カンクン の空港の天気 - METARとTAF

カンクン国際空港 ( MMUN / CUN ) - メキシコ キンタナ・ロー州カンクン
飛行場実況気象(Metar)
観測時間05/20 17:53 CDT (05/20 22:53 UTC)
風向・風速東 5m/s
視程10km以上
天気現象
全天の8割程度の雲 雲底高度 550m
気温29℃
湿度70%
気圧1012hPa
METARMMUN 202253Z 10010KT 7SM BKN018 29/23 A2989 RMK 8/100
過去の天気等 Google飛行場航空写真 Wunderground天気予報

過去48時間のMETAR

飛行場予報(TAF)
発表時間: 5/20 11:58 CDT (5/20 16:58 UTC)
予報対象時間: 20日13時 CDT ~ 21日19時 CDT
風向・風速東南東 8m/s
視程10km以上
全天の8割程度の雲 雲底高度 610m
20日19時 CDT から
風向・風速東南東 5m/s
視程10km以上
全天の4割程度の雲 雲底高度 460m
21日10時 CDT から
風向・風速東南東 8m/s
視程10km以上
全天の8割程度の雲 雲底高度 460m
TAF MMUN 201658Z 2018/2124 12015KT P6SM BKN020 TX31/2018Z TN27/2110Z
FM210000 12010KT P6SM SCT015
FM211500 12015KT P6SM BKN015